GLD1793 LPFL-LPCR

Flight info

Callsign GLD1793
Flight time 0h 6m
Altitude 3000
Route DCT CR476 DCT
Aircraft BE58/M-SDFGIRY/S

Departure

Time 2026-05-09 20:57
Airport Flores Airport (LPFL)

Arrival

Time 2026-05-09 21:03
Airport Corvo Airport (LPCR)
Time Latitude Longitude Altitude Speed Heading
2026-05-09 20:50 39.45835 -31.13078 89 ft 0 kts 326°
2026-05-09 20:56 39.45787 -31.13196 91 ft 9 kts 193°
2026-05-09 20:56 39.45689 -31.13186 94 ft 16 kts 179°
2026-05-09 20:57 39.45642 -31.13163 95 ft 0 kts 358°
2026-05-09 20:57 39.45874 -31.13226 110 ft 68 kts 347°
2026-05-09 20:57 39.46397 -31.13324 371 ft 83 kts 353°
2026-05-09 20:57 39.47077 -31.13390 764 ft 113 kts 358°
2026-05-09 20:58 39.47919 -31.13337 1186 ft 126 kts 10°
2026-05-09 20:58 39.48773 -31.13046 1661 ft 128 kts 17°
2026-05-09 20:58 39.49635 -31.12702 2072 ft 132 kts 16°
2026-05-09 20:58 39.50555 -31.12378 2309 ft 145 kts 14°
2026-05-09 20:59 39.51590 -31.12095 2431 ft 157 kts 11°
2026-05-09 20:59 39.52692 -31.11873 2555 ft 162 kts
2026-05-09 20:59 39.53823 -31.11699 2574 ft 170 kts
2026-05-09 21:00 39.56245 -31.11423 2574 ft 178 kts
2026-05-09 21:00 39.57393 -31.11184 2413 ft 162 kts 12°
2026-05-09 21:00 39.58490 -31.10908 2145 ft 158 kts 11°
2026-05-09 21:00 39.59580 -31.10730 1827 ft 159 kts
2026-05-09 21:01 39.60697 -31.10581 1464 ft 161 kts
2026-05-09 21:01 39.61777 -31.10385 1240 ft 156 kts 13°
2026-05-09 21:01 39.62760 -31.09934 1134 ft 146 kts 27°
2026-05-09 21:02 39.64402 -31.08641 1181 ft 133 kts 28°
2026-05-09 21:02 39.65249 -31.08185 1124 ft 127 kts 11°
2026-05-09 21:02 39.66084 -31.08352 942 ft 125 kts 339°
2026-05-09 21:02 39.66743 -31.09120 590 ft 133 kts 314°
2026-05-09 21:03 39.67045 -31.10187 356 ft 120 kts 280°
2026-05-09 21:03 39.67082 -31.11142 76 ft 90 kts 294°
2026-05-09 21:03 39.67170 -31.11807 30 ft 52 kts 283°
2026-05-09 21:03 39.67179 -31.11941 30 ft 2 kts 264°
2026-05-09 21:04 39.67166 -31.11917 29 ft 8 kts 93°
2026-05-09 21:04 39.67164 -31.11833 30 ft 8 kts 95°
2026-05-09 21:04 39.67157 -31.11758 30 ft 10 kts 97°
2026-05-09 21:04 39.67148 -31.11660 32 ft 12 kts 98°
2026-05-09 21:05 39.67139 -31.11547 33 ft 13 kts 96°
2026-05-09 21:05 39.67128 -31.11422 33 ft 13 kts 100°
2026-05-09 21:05 39.67100 -31.11352 36 ft 2 kts 143°
2026-05-09 21:05 39.67091 -31.11343 38 ft 4 kts 140°
2026-05-09 21:06 39.67087 -31.11322 39 ft 0 kts 70°
2026-05-09 21:10 39.67090 -31.11313 38 ft 7 kts 59°
2026-05-09 21:11 39.67123 -31.11365 34 ft 24 kts 276°
2026-05-09 21:12 39.64920 -31.13076 900 ft 165 kts 176°
2026-05-09 21:12 39.63752 -31.12981 1292 ft 174 kts 171°
2026-05-09 21:12 39.62510 -31.12834 1648 ft 182 kts 170°
2026-05-09 21:12 39.61232 -31.12612 1965 ft 189 kts 167°
2026-05-09 21:13 39.59918 -31.12343 2184 ft 197 kts 167°
2026-05-09 21:13 39.58525 -31.12052 2287 ft 206 kts 167°
2026-05-09 21:13 39.57093 -31.11760 2413 ft 209 kts 168°
2026-05-09 21:13 39.55633 -31.11485 2492 ft 214 kts 169°
2026-05-09 21:14 39.54177 -31.11243 2599 ft 209 kts 170°
2026-05-09 21:14 39.52728 -31.11000 2447 ft 213 kts 168°
2026-05-09 21:14 39.51255 -31.10752 2375 ft 213 kts 169°
2026-05-09 21:14 39.49775 -31.10531 2331 ft 214 kts 171°
2026-05-09 21:15 39.48279 -31.10355 2273 ft 217 kts 172°
2026-05-09 21:15 39.46782 -31.10240 2343 ft 209 kts 175°
2026-05-09 21:15 39.45381 -31.10217 2163 ft 193 kts 178°
2026-05-09 21:15 39.44125 -31.10214 2048 ft 169 kts 174°
2026-05-09 21:16 39.42973 -31.10187 1979 ft 161 kts 188°
2026-05-09 21:16 39.42175 -31.11033 1968 ft 156 kts 260°
2026-05-09 21:16 39.42627 -31.12041 1317 ft 135 kts 338°
2026-05-09 21:16 39.43404 -31.12569 532 ft 109 kts 343°
2026-05-09 21:17 39.44060 -31.12732 250 ft 88 kts 346°
2026-05-09 21:17 39.44602 -31.12876 160 ft 74 kts 346°
2026-05-09 21:17 39.45081 -31.13007 109 ft 68 kts 346°
2026-05-09 21:17 39.45499 -31.13121 94 ft 53 kts 347°
2026-05-09 21:18 39.45772 -31.13199 93 ft 27 kts 353°
2026-05-09 21:18 39.45821 -31.13119 90 ft 11 kts 91°
2026-05-09 21:18 39.45829 -31.13089 91 ft 0 kts 319°
2026-05-09 21:28 39.45830 -31.13100 91 ft 2 kts 262°
2026-05-09 21:28 39.45830 -31.13101 91 ft 0 kts 261°
2026-05-09 21:29 39.45823 -31.13140 91 ft 9 kts 255°
2026-05-09 21:29 39.45767 -31.13196 91 ft 16 kts 168°
2026-05-09 21:29 39.45636 -31.13165 95 ft 23 kts 170°
2026-05-09 21:30 39.45480 -31.13139 101 ft 20 kts 170°
2026-05-09 21:30 39.45425 -31.13104 101 ft 6 kts 17°
2026-05-09 21:30 39.45431 -31.13104 101 ft 0 kts 353°